sensor_id;sensor_type;location;lat;lon;timestamp;P1;durP1;ratioP1;P2;durP2;ratioP2
11671;SDS011;5892;43.412;24.612;2024-02-21T00:01:45;22.73;;;10.63;;
11671;SDS011;5892;43.412;24.612;2024-02-21T00:04:11;17.42;;;9.18;;
11671;SDS011;5892;43.412;24.612;2024-02-21T00:06:37;20.48;;;10.32;;
11671;SDS011;5892;43.412;24.612;2024-02-21T00:09:02;19.90;;;10.68;;
11671;SDS011;5892;43.412;24.612;2024-02-21T00:11:28;20.30;;;9.85;;
11671;SDS011;5892;43.412;24.612;2024-02-21T00:13:54;18.73;;;10.05;;
11671;SDS011;5892;43.412;24.612;2024-02-21T00:16:19;20.45;;;9.30;;
11671;SDS011;5892;43.412;24.612;2024-02-21T00:18:45;18.65;;;9.73;;
11671;SDS011;5892;43.412;24.612;2024-02-21T00:21:11;15.73;;;8.65;;
11671;SDS011;5892;43.412;24.612;2024-02-21T00:23:42;16.42;;;8.32;;
11671;SDS011;5892;43.412;24.612;2024-02-21T00:26:10;15.30;;;7.75;;
11671;SDS011;5892;43.412;24.612;2024-02-21T00:28:37;13.23;;;7.88;;
11671;SDS011;5892;43.412;24.612;2024-02-21T00:31:02;18.75;;;8.98;;
11671;SDS011;5892;43.412;24.612;2024-02-21T00:33:28;19.23;;;8.43;;
11671;SDS011;5892;43.412;24.612;2024-02-21T00:35:53;19.60;;;9.43;;
11671;SDS011;5892;43.412;24.612;2024-02-21T01:28:05;15.73;;;7.75;;
11671;SDS011;5892;43.412;24.612;2024-02-21T01:30:31;18.90;;;9.32;;
11671;SDS011;5892;43.412;24.612;2024-02-21T01:32:56;104.65;;;39.92;;
11671;SDS011;5892;43.412;24.612;2024-02-21T01:35:21;95.25;;;35.72;;
11671;SDS011;5892;43.412;24.612;2024-02-21T01:37:47;28.73;;;10.43;;
11671;SDS011;5892;43.412;24.612;2024-02-21T01:40:14;18.40;;;9.13;;
11671;SDS011;5892;43.412;24.612;2024-02-21T01:42:40;15.07;;;8.05;;
11671;SDS011;5892;43.412;24.612;2024-02-21T01:45:09;14.65;;;7.75;;
11671;SDS011;5892;43.412;24.612;2024-02-21T01:47:36;15.38;;;8.15;;
11671;SDS011;5892;43.412;24.612;2024-02-21T01:50:02;14.20;;;7.82;;
11671;SDS011;5892;43.412;24.612;2024-02-21T01:52:29;11.98;;;7.25;;
11671;SDS011;5892;43.412;24.612;2024-02-21T01:54:56;16.92;;;7.63;;
11671;SDS011;5892;43.412;24.612;2024-02-21T01:57:22;14.07;;;8.10;;
11671;SDS011;5892;43.412;24.612;2024-02-21T01:59:49;15.50;;;6.70;;
11671;SDS011;5892;43.412;24.612;2024-02-21T02:02:15;19.55;;;8.93;;
11671;SDS011;5892;43.412;24.612;2024-02-21T02:04:42;21.77;;;12.30;;
11671;SDS011;5892;43.412;24.612;2024-02-21T02:07:10;21.48;;;11.88;;
11671;SDS011;5892;43.412;24.612;2024-02-21T02:09:35;22.13;;;9.70;;
11671;SDS011;5892;43.412;24.612;2024-02-21T02:12:01;16.13;;;8.32;;
11671;SDS011;5892;43.412;24.612;2024-02-21T02:14:27;16.95;;;8.35;;
11671;SDS011;5892;43.412;24.612;2024-02-21T02:16:52;19.02;;;8.82;;
11671;SDS011;5892;43.412;24.612;2024-02-21T02:19:18;16.70;;;8.52;;
11671;SDS011;5892;43.412;24.612;2024-02-21T02:21:49;15.57;;;7.95;;
11671;SDS011;5892;43.412;24.612;2024-02-21T02:24:21;15.65;;;7.45;;
11671;SDS011;5892;43.412;24.612;2024-02-21T02:26:53;13.10;;;7.78;;
11671;SDS011;5892;43.412;24.612;2024-02-21T02:29:18;14.98;;;7.65;;
11671;SDS011;5892;43.412;24.612;2024-02-21T03:19:31;13.02;;;6.15;;
11671;SDS011;5892;43.412;24.612;2024-02-21T03:21:56;11.63;;;6.13;;
11671;SDS011;5892;43.412;24.612;2024-02-21T03:24:22;14.63;;;6.72;;
11671;SDS011;5892;43.412;24.612;2024-02-21T03:26:48;16.95;;;7.32;;
11671;SDS011;5892;43.412;24.612;2024-02-21T03:29:16;14.68;;;7.15;;
11671;SDS011;5892;43.412;24.612;2024-02-21T03:31:42;15.45;;;6.53;;
11671;SDS011;5892;43.412;24.612;2024-02-21T03:34:11;13.77;;;7.70;;
11671;SDS011;5892;43.412;24.612;2024-02-21T03:36:36;13.45;;;5.22;;
11671;SDS011;5892;43.412;24.612;2024-02-21T03:39:02;11.52;;;5.80;;
11671;SDS011;5892;43.412;24.612;2024-02-21T03:41:28;10.77;;;6.05;;
11671;SDS011;5892;43.412;24.612;2024-02-21T03:43:54;11.60;;;5.55;;
11671;SDS011;5892;43.412;24.612;2024-02-21T03:46:19;9.70;;;5.40;;
11671;SDS011;5892;43.412;24.612;2024-02-21T03:48:45;10.90;;;4.47;;
11671;SDS011;5892;43.412;24.612;2024-02-21T03:51:11;13.75;;;6.90;;
11671;SDS011;5892;43.412;24.612;2024-02-21T03:53:36;13.02;;;5.75;;
11671;SDS011;5892;43.412;24.612;2024-02-21T03:56:02;10.98;;;5.47;;
11671;SDS011;5892;43.412;24.612;2024-02-21T03:58:29;10.77;;;5.75;;
11671;SDS011;5892;43.412;24.612;2024-02-21T04:00:55;11.32;;;5.45;;
11671;SDS011;5892;43.412;24.612;2024-02-21T04:03:23;12.13;;;5.60;;
11671;SDS011;5892;43.412;24.612;2024-02-21T04:05:48;11.93;;;5.07;;
11671;SDS011;5892;43.412;24.612;2024-02-21T04:08:14;10.93;;;5.47;;
11671;SDS011;5892;43.412;24.612;2024-02-21T04:10:39;9.38;;;5.53;;
11671;SDS011;5892;43.412;24.612;2024-02-21T04:13:06;13.55;;;5.72;;
11671;SDS011;5892;43.412;24.612;2024-02-21T04:15:32;15.20;;;6.43;;
11671;SDS011;5892;43.412;24.612;2024-02-21T04:17:57;10.38;;;5.22;;
11671;SDS011;5892;43.412;24.612;2024-02-21T04:20:23;11.77;;;5.93;;
11671;SDS011;5892;43.412;24.612;2024-02-21T04:22:48;12.88;;;5.88;;
11671;SDS011;5892;43.412;24.612;2024-02-21T04:25:14;11.52;;;5.97;;
11671;SDS011;5892;43.412;24.612;2024-02-21T04:27:39;12.13;;;4.85;;
11671;SDS011;5892;43.412;24.612;2024-02-21T04:30:05;10.85;;;4.88;;
11671;SDS011;5892;43.412;24.612;2024-02-21T04:32:32;11.55;;;4.57;;
11671;SDS011;5892;43.412;24.612;2024-02-21T04:34:57;10.82;;;6.30;;
11671;SDS011;5892;43.412;24.612;2024-02-21T04:37:23;10.60;;;5.72;;
11671;SDS011;5892;43.412;24.612;2024-02-21T04:39:49;10.50;;;5.60;;
11671;SDS011;5892;43.412;24.612;2024-02-21T04:42:15;9.05;;;5.07;;
11671;SDS011;5892;43.412;24.612;2024-02-21T04:44:40;9.93;;;5.18;;
11671;SDS011;5892;43.412;24.612;2024-02-21T04:47:06;11.38;;;4.68;;
11671;SDS011;5892;43.412;24.612;2024-02-21T04:49:32;8.95;;;5.30;;
11671;SDS011;5892;43.412;24.612;2024-02-21T04:51:57;9.25;;;5.18;;
11671;SDS011;5892;43.412;24.612;2024-02-21T04:54:23;10.40;;;5.88;;
11671;SDS011;5892;43.412;24.612;2024-02-21T04:56:48;11.10;;;5.53;;
11671;SDS011;5892;43.412;24.612;2024-02-21T04:59:14;7.07;;;4.55;;
11671;SDS011;5892;43.412;24.612;2024-02-21T05:01:39;10.77;;;6.30;;
11671;SDS011;5892;43.412;24.612;2024-02-21T05:04:05;10.73;;;5.82;;
11671;SDS011;5892;43.412;24.612;2024-02-21T05:06:40;16.52;;;7.85;;
11671;SDS011;5892;43.412;24.612;2024-02-21T05:09:07;18.38;;;9.38;;
11671;SDS011;5892;43.412;24.612;2024-02-21T05:11:36;17.92;;;8.38;;
11671;SDS011;5892;43.412;24.612;2024-02-21T05:14:04;13.07;;;6.90;;
11671;SDS011;5892;43.412;24.612;2024-02-21T05:16:30;14.57;;;7.63;;
11671;SDS011;5892;43.412;24.612;2024-02-21T05:18:57;10.23;;;6.32;;
11671;SDS011;5892;43.412;24.612;2024-02-21T05:21:24;12.68;;;5.78;;
11671;SDS011;5892;43.412;24.612;2024-02-21T05:23:51;18.88;;;8.43;;
11671;SDS011;5892;43.412;24.612;2024-02-21T05:26:21;12.43;;;6.28;;
11671;SDS011;5892;43.412;24.612;2024-02-21T05:28:49;19.38;;;6.65;;
11671;SDS011;5892;43.412;24.612;2024-02-21T05:33:46;13.35;;;6.63;;
11671;SDS011;5892;43.412;24.612;2024-02-21T05:36:12;12.32;;;7.43;;
11671;SDS011;5892;43.412;24.612;2024-02-21T05:38:38;16.10;;;7.60;;
11671;SDS011;5892;43.412;24.612;2024-02-21T05:41:04;16.33;;;8.13;;
11671;SDS011;5892;43.412;24.612;2024-02-21T05:43:30;24.63;;;7.40;;
11671;SDS011;5892;43.412;24.612;2024-02-21T05:45:56;15.93;;;7.30;;
11671;SDS011;5892;43.412;24.612;2024-02-21T05:48:22;19.05;;;7.82;;
11671;SDS011;5892;43.412;24.612;2024-02-21T05:50:48;24.88;;;7.15;;
11671;SDS011;5892;43.412;24.612;2024-02-21T05:53:14;18.50;;;6.88;;
11671;SDS011;5892;43.412;24.612;2024-02-21T05:55:41;22.83;;;7.85;;
11671;SDS011;5892;43.412;24.612;2024-02-21T05:58:07;21.33;;;8.00;;
11671;SDS011;5892;43.412;24.612;2024-02-21T06:00:36;14.95;;;7.43;;
11671;SDS011;5892;43.412;24.612;2024-02-21T06:03:02;19.00;;;7.30;;
11671;SDS011;5892;43.412;24.612;2024-02-21T06:05:28;17.55;;;6.40;;
11671;SDS011;5892;43.412;24.612;2024-02-21T06:07:53;12.50;;;7.07;;
11671;SDS011;5892;43.412;24.612;2024-02-21T06:10:18;16.60;;;6.43;;
11671;SDS011;5892;43.412;24.612;2024-02-21T06:12:44;15.90;;;7.80;;
11671;SDS011;5892;43.412;24.612;2024-02-21T06:15:09;14.02;;;7.10;;
11671;SDS011;5892;43.412;24.612;2024-02-21T06:17:35;10.55;;;6.70;;
11671;SDS011;5892;43.412;24.612;2024-02-21T06:20:00;14.82;;;8.35;;
11671;SDS011;5892;43.412;24.612;2024-02-21T06:22:26;12.88;;;6.70;;
11671;SDS011;5892;43.412;24.612;2024-02-21T06:24:51;16.65;;;8.25;;
11671;SDS011;5892;43.412;24.612;2024-02-21T06:27:19;14.20;;;7.90;;
11671;SDS011;5892;43.412;24.612;2024-02-21T06:29:46;16.50;;;7.53;;
11671;SDS011;5892;43.412;24.612;2024-02-21T06:32:11;17.02;;;7.20;;
11671;SDS011;5892;43.412;24.612;2024-02-21T06:34:37;16.10;;;7.60;;
11671;SDS011;5892;43.412;24.612;2024-02-21T06:37:02;14.65;;;8.10;;
11671;SDS011;5892;43.412;24.612;2024-02-21T06:39:29;16.90;;;7.63;;
11671;SDS011;5892;43.412;24.612;2024-02-21T06:41:54;12.13;;;7.40;;
11671;SDS011;5892;43.412;24.612;2024-02-21T06:44:21;16.40;;;7.63;;
11671;SDS011;5892;43.412;24.612;2024-02-21T06:46:46;15.00;;;7.13;;
11671;SDS011;5892;43.412;24.612;2024-02-21T06:49:12;13.20;;;6.95;;
11671;SDS011;5892;43.412;24.612;2024-02-21T06:51:43;12.10;;;7.75;;
11671;SDS011;5892;43.412;24.612;2024-02-21T06:54:09;15.77;;;7.47;;
11671;SDS011;5892;43.412;24.612;2024-02-21T06:56:35;14.20;;;6.70;;
11671;SDS011;5892;43.412;24.612;2024-02-21T06:59:01;13.10;;;6.60;;
11671;SDS011;5892;43.412;24.612;2024-02-21T07:01:28;11.80;;;7.55;;
11671;SDS011;5892;43.412;24.612;2024-02-21T07:03:54;14.05;;;6.00;;
11671;SDS011;5892;43.412;24.612;2024-02-21T07:06:19;17.35;;;6.72;;
11671;SDS011;5892;43.412;24.612;2024-02-21T07:08:45;12.90;;;5.45;;
11671;SDS011;5892;43.412;24.612;2024-02-21T07:11:10;9.82;;;4.78;;
11671;SDS011;5892;43.412;24.612;2024-02-21T07:13:36;13.63;;;5.50;;
11671;SDS011;5892;43.412;24.612;2024-02-21T07:16:03;11.55;;;6.47;;
11671;SDS011;5892;43.412;24.612;2024-02-21T07:18:28;15.07;;;7.22;;
11671;SDS011;5892;43.412;24.612;2024-02-21T07:20:54;12.20;;;6.30;;
11671;SDS011;5892;43.412;24.612;2024-02-21T07:23:20;14.88;;;6.65;;
11671;SDS011;5892;43.412;24.612;2024-02-21T07:25:46;14.02;;;6.60;;
11671;SDS011;5892;43.412;24.612;2024-02-21T07:28:12;12.05;;;7.13;;
11671;SDS011;5892;43.412;24.612;2024-02-21T07:30:38;14.60;;;7.53;;
11671;SDS011;5892;43.412;24.612;2024-02-21T07:33:04;14.45;;;7.18;;
11671;SDS011;5892;43.412;24.612;2024-02-21T07:35:29;14.38;;;8.13;;
11671;SDS011;5892;43.412;24.612;2024-02-21T07:37:55;19.23;;;9.77;;
11671;SDS011;5892;43.412;24.612;2024-02-21T07:40:20;18.38;;;10.63;;
11671;SDS011;5892;43.412;24.612;2024-02-21T07:42:46;19.48;;;9.73;;
11671;SDS011;5892;43.412;24.612;2024-02-21T07:45:11;21.85;;;10.63;;
11671;SDS011;5892;43.412;24.612;2024-02-21T07:47:37;16.67;;;9.18;;
11671;SDS011;5892;43.412;24.612;2024-02-21T07:50:03;16.75;;;9.15;;
11671;SDS011;5892;43.412;24.612;2024-02-21T07:52:29;17.23;;;10.02;;
11671;SDS011;5892;43.412;24.612;2024-02-21T07:54:54;19.85;;;10.05;;
11671;SDS011;5892;43.412;24.612;2024-02-21T07:57:20;19.80;;;9.95;;
11671;SDS011;5892;43.412;24.612;2024-02-21T07:59:45;21.05;;;10.73;;
11671;SDS011;5892;43.412;24.612;2024-02-21T08:02:13;21.95;;;10.15;;
11671;SDS011;5892;43.412;24.612;2024-02-21T08:04:43;19.15;;;9.88;;
11671;SDS011;5892;43.412;24.612;2024-02-21T08:07:09;18.58;;;9.35;;
11671;SDS011;5892;43.412;24.612;2024-02-21T08:09:34;18.38;;;9.23;;
11671;SDS011;5892;43.412;24.612;2024-02-21T08:12:02;18.48;;;8.88;;
11671;SDS011;5892;43.412;24.612;2024-02-21T08:14:29;17.40;;;9.25;;
11671;SDS011;5892;43.412;24.612;2024-02-21T08:16:54;19.40;;;9.32;;
11671;SDS011;5892;43.412;24.612;2024-02-21T08:19:20;17.25;;;7.57;;
11671;SDS011;5892;43.412;24.612;2024-02-21T08:21:46;14.60;;;8.77;;
11671;SDS011;5892;43.412;24.612;2024-02-21T08:24:14;16.10;;;8.45;;
11671;SDS011;5892;43.412;24.612;2024-02-21T08:26:43;15.43;;;8.20;;
11671;SDS011;5892;43.412;24.612;2024-02-21T08:29:12;16.25;;;8.25;;
11671;SDS011;5892;43.412;24.612;2024-02-21T08:31:38;14.32;;;8.70;;
11671;SDS011;5892;43.412;24.612;2024-02-21T08:34:03;16.75;;;8.10;;
11671;SDS011;5892;43.412;24.612;2024-02-21T08:36:29;18.05;;;6.45;;
11671;SDS011;5892;43.412;24.612;2024-02-21T08:38:59;17.13;;;7.93;;
11671;SDS011;5892;43.412;24.612;2024-02-21T08:41:26;14.00;;;7.93;;
11671;SDS011;5892;43.412;24.612;2024-02-21T08:43:52;14.35;;;7.85;;
11671;SDS011;5892;43.412;24.612;2024-02-21T08:46:22;16.92;;;9.15;;
11671;SDS011;5892;43.412;24.612;2024-02-21T08:48:49;12.90;;;6.70;;
11671;SDS011;5892;43.412;24.612;2024-02-21T08:51:16;15.85;;;8.15;;
11671;SDS011;5892;43.412;24.612;2024-02-21T08:53:42;13.13;;;7.40;;
11671;SDS011;5892;43.412;24.612;2024-02-21T08:56:07;14.27;;;7.40;;
11671;SDS011;5892;43.412;24.612;2024-02-21T08:58:35;10.90;;;6.72;;
11671;SDS011;5892;43.412;24.612;2024-02-21T09:01:02;14.32;;;6.75;;
11671;SDS011;5892;43.412;24.612;2024-02-21T09:03:30;15.63;;;7.68;;
11671;SDS011;5892;43.412;24.612;2024-02-21T09:05:59;14.50;;;7.47;;
11671;SDS011;5892;43.412;24.612;2024-02-21T09:08:25;12.27;;;7.28;;
11671;SDS011;5892;43.412;24.612;2024-02-21T09:10:52;17.23;;;7.97;;
11671;SDS011;5892;43.412;24.612;2024-02-21T09:13:17;17.27;;;8.25;;
11671;SDS011;5892;43.412;24.612;2024-02-21T09:15:43;19.10;;;8.23;;
11671;SDS011;5892;43.412;24.612;2024-02-21T09:18:09;20.30;;;8.68;;
11671;SDS011;5892;43.412;24.612;2024-02-21T09:20:35;18.73;;;8.13;;
11671;SDS011;5892;43.412;24.612;2024-02-21T09:23:00;13.13;;;8.75;;
11671;SDS011;5892;43.412;24.612;2024-02-21T09:25:26;16.02;;;10.02;;
11671;SDS011;5892;43.412;24.612;2024-02-21T09:27:53;13.52;;;8.65;;
11671;SDS011;5892;43.412;24.612;2024-02-21T09:30:19;15.30;;;7.47;;
11671;SDS011;5892;43.412;24.612;2024-02-21T09:32:45;17.08;;;8.63;;
11671;SDS011;5892;43.412;24.612;2024-02-21T09:35:10;12.15;;;8.27;;
11671;SDS011;5892;43.412;24.612;2024-02-21T09:37:37;14.38;;;8.35;;
11671;SDS011;5892;43.412;24.612;2024-02-21T09:40:06;10.88;;;7.03;;
11671;SDS011;5892;43.412;24.612;2024-02-21T09:45:07;20.88;;;8.55;;
11671;SDS011;5892;43.412;24.612;2024-02-21T09:47:39;18.40;;;10.65;;
11671;SDS011;5892;43.412;24.612;2024-02-21T09:50:23;22.30;;;13.40;;
11671;SDS011;5892;43.412;24.612;2024-02-21T09:52:50;25.08;;;13.68;;
11671;SDS011;5892;43.412;24.612;2024-02-21T09:55:17;23.00;;;12.55;;
11671;SDS011;5892;43.412;24.612;2024-02-21T09:57:44;18.23;;;9.52;;
11671;SDS011;5892;43.412;24.612;2024-02-21T10:00:10;19.42;;;11.77;;
11671;SDS011;5892;43.412;24.612;2024-02-21T10:02:36;16.98;;;9.98;;
11671;SDS011;5892;43.412;24.612;2024-02-21T10:05:02;16.23;;;9.65;;
11671;SDS011;5892;43.412;24.612;2024-02-21T10:07:29;16.58;;;9.60;;
11671;SDS011;5892;43.412;24.612;2024-02-21T10:10:04;13.93;;;8.32;;
11671;SDS011;5892;43.412;24.612;2024-02-21T10:12:31;12.43;;;7.70;;
11671;SDS011;5892;43.412;24.612;2024-02-21T10:15:00;13.85;;;7.30;;
11671;SDS011;5892;43.412;24.612;2024-02-21T10:17:26;15.30;;;8.38;;
11671;SDS011;5892;43.412;24.612;2024-02-21T10:19:52;14.88;;;9.25;;
11671;SDS011;5892;43.412;24.612;2024-02-21T10:22:17;21.67;;;10.27;;
11671;SDS011;5892;43.412;24.612;2024-02-21T10:24:43;34.92;;;9.85;;
11671;SDS011;5892;43.412;24.612;2024-02-21T10:27:09;26.67;;;8.77;;
11671;SDS011;5892;43.412;24.612;2024-02-21T10:29:38;26.15;;;10.93;;
11671;SDS011;5892;43.412;24.612;2024-02-21T10:32:07;20.80;;;8.52;;
11671;SDS011;5892;43.412;24.612;2024-02-21T10:34:37;47.70;;;18.75;;
11671;SDS011;5892;43.412;24.612;2024-02-21T10:37:04;41.50;;;17.95;;
11671;SDS011;5892;43.412;24.612;2024-02-21T10:39:41;18.05;;;10.18;;
11671;SDS011;5892;43.412;24.612;2024-02-21T10:42:07;18.92;;;9.13;;
11671;SDS011;5892;43.412;24.612;2024-02-21T10:44:39;15.60;;;8.40;;
11671;SDS011;5892;43.412;24.612;2024-02-21T10:47:09;15.20;;;8.52;;
11671;SDS011;5892;43.412;24.612;2024-02-21T10:49:39;11.45;;;6.97;;
11671;SDS011;5892;43.412;24.612;2024-02-21T10:52:06;13.48;;;6.47;;
11671;SDS011;5892;43.412;24.612;2024-02-21T10:57:09;20.73;;;9.73;;
11671;SDS011;5892;43.412;24.612;2024-02-21T10:59:37;26.17;;;11.48;;
11671;SDS011;5892;43.412;24.612;2024-02-21T11:02:04;24.52;;;10.45;;
11671;SDS011;5892;43.412;24.612;2024-02-21T11:04:30;17.17;;;9.05;;
11671;SDS011;5892;43.412;24.612;2024-02-21T11:07:01;22.30;;;10.52;;
11671;SDS011;5892;43.412;24.612;2024-02-21T11:09:32;19.73;;;6.80;;
11671;SDS011;5892;43.412;24.612;2024-02-21T11:11:58;15.63;;;8.32;;
11671;SDS011;5892;43.412;24.612;2024-02-21T11:14:26;11.23;;;6.97;;
11671;SDS011;5892;43.412;24.612;2024-02-21T11:16:52;12.38;;;6.43;;
11671;SDS011;5892;43.412;24.612;2024-02-21T11:21:47;17.92;;;6.60;;
11671;SDS011;5892;43.412;24.612;2024-02-21T11:24:13;16.00;;;7.72;;
11671;SDS011;5892;43.412;24.612;2024-02-21T11:26:39;14.25;;;6.53;;
11671;SDS011;5892;43.412;24.612;2024-02-21T11:29:08;12.68;;;6.50;;
11671;SDS011;5892;43.412;24.612;2024-02-21T11:31:39;11.52;;;5.72;;
11671;SDS011;5892;43.412;24.612;2024-02-21T11:34:08;17.27;;;9.23;;
11671;SDS011;5892;43.412;24.612;2024-02-21T11:39:17;15.38;;;7.00;;
11671;SDS011;5892;43.412;24.612;2024-02-21T11:41:47;17.67;;;8.60;;
11671;SDS011;5892;43.412;24.612;2024-02-21T11:44:13;10.55;;;5.57;;
11671;SDS011;5892;43.412;24.612;2024-02-21T11:46:38;12.40;;;5.50;;
11671;SDS011;5892;43.412;24.612;2024-02-21T11:49:04;10.27;;;5.40;;
11671;SDS011;5892;43.412;24.612;2024-02-21T11:51:30;8.73;;;5.68;;
11671;SDS011;5892;43.412;24.612;2024-02-21T11:53:55;18.67;;;8.35;;
11671;SDS011;5892;43.412;24.612;2024-02-21T11:56:22;12.18;;;5.65;;
11671;SDS011;5892;43.412;24.612;2024-02-21T11:58:48;9.65;;;5.25;;
11671;SDS011;5892;43.412;24.612;2024-02-21T12:01:14;9.90;;;5.72;;
11671;SDS011;5892;43.412;24.612;2024-02-21T12:03:40;16.17;;;6.68;;
11671;SDS011;5892;43.412;24.612;2024-02-21T12:06:06;8.23;;;4.72;;
11671;SDS011;5892;43.412;24.612;2024-02-21T12:08:42;6.13;;;4.43;;
11671;SDS011;5892;43.412;24.612;2024-02-21T12:11:43;14.77;;;4.47;;
11671;SDS011;5892;43.412;24.612;2024-02-21T12:14:02;6.53;;;3.78;;
11671;SDS011;5892;43.412;24.612;2024-02-21T12:16:30;15.90;;;5.03;;
11671;SDS011;5892;43.412;24.612;2024-02-21T12:18:57;6.45;;;4.13;;
11671;SDS011;5892;43.412;24.612;2024-02-21T12:21:27;6.70;;;4.05;;
11671;SDS011;5892;43.412;24.612;2024-02-21T12:23:55;7.28;;;3.80;;
11671;SDS011;5892;43.412;24.612;2024-02-21T12:26:21;7.80;;;5.03;;
11671;SDS011;5892;43.412;24.612;2024-02-21T12:28:47;8.57;;;4.80;;
11671;SDS011;5892;43.412;24.612;2024-02-21T12:31:13;8.70;;;5.47;;
11671;SDS011;5892;43.412;24.612;2024-02-21T12:33:39;10.32;;;5.15;;
11671;SDS011;5892;43.412;24.612;2024-02-21T12:36:05;7.93;;;5.45;;
11671;SDS011;5892;43.412;24.612;2024-02-21T12:38:30;7.75;;;4.88;;
11671;SDS011;5892;43.412;24.612;2024-02-21T12:40:56;9.20;;;4.85;;
11671;SDS011;5892;43.412;24.612;2024-02-21T12:43:25;10.15;;;6.45;;
11671;SDS011;5892;43.412;24.612;2024-02-21T12:45:52;10.00;;;5.82;;
11671;SDS011;5892;43.412;24.612;2024-02-21T12:48:18;14.30;;;7.43;;
11671;SDS011;5892;43.412;24.612;2024-02-21T12:50:50;14.32;;;6.97;;
11671;SDS011;5892;43.412;24.612;2024-02-21T12:53:17;10.93;;;6.38;;
11671;SDS011;5892;43.412;24.612;2024-02-21T12:55:49;9.63;;;5.03;;
11671;SDS011;5892;43.412;24.612;2024-02-21T13:32:05;12.00;;;5.72;;
11671;SDS011;5892;43.412;24.612;2024-02-21T13:34:31;8.88;;;6.20;;
11671;SDS011;5892;43.412;24.612;2024-02-21T13:36:57;11.55;;;6.10;;
11671;SDS011;5892;43.412;24.612;2024-02-21T13:39:24;10.63;;;6.18;;
11671;SDS011;5892;43.412;24.612;2024-02-21T13:47:00;12.77;;;7.13;;
11671;SDS011;5892;43.412;24.612;2024-02-21T13:49:25;16.38;;;7.63;;
11671;SDS011;5892;43.412;24.612;2024-02-21T13:51:51;16.55;;;7.20;;
11671;SDS011;5892;43.412;24.612;2024-02-21T13:54:16;12.77;;;6.90;;
11671;SDS011;5892;43.412;24.612;2024-02-21T13:56:44;15.68;;;8.48;;
11671;SDS011;5892;43.412;24.612;2024-02-21T13:59:11;15.75;;;7.68;;
11671;SDS011;5892;43.412;24.612;2024-02-21T14:01:38;14.82;;;7.53;;
11671;SDS011;5892;43.412;24.612;2024-02-21T14:04:04;14.80;;;8.18;;
11671;SDS011;5892;43.412;24.612;2024-02-21T14:06:29;11.68;;;6.45;;
11671;SDS011;5892;43.412;24.612;2024-02-21T14:08:55;10.98;;;6.97;;
11671;SDS011;5892;43.412;24.612;2024-02-21T14:11:20;12.82;;;7.30;;
11671;SDS011;5892;43.412;24.612;2024-02-21T14:13:46;13.10;;;7.95;;
11671;SDS011;5892;43.412;24.612;2024-02-21T14:16:11;14.82;;;7.05;;
11671;SDS011;5892;43.412;24.612;2024-02-21T14:18:38;13.60;;;7.43;;
11671;SDS011;5892;43.412;24.612;2024-02-21T14:21:06;9.27;;;5.75;;
11671;SDS011;5892;43.412;24.612;2024-02-21T14:23:32;10.27;;;4.93;;
11671;SDS011;5892;43.412;24.612;2024-02-21T14:25:59;8.38;;;5.07;;
11671;SDS011;5892;43.412;24.612;2024-02-21T14:28:24;12.07;;;4.55;;
11671;SDS011;5892;43.412;24.612;2024-02-21T14:30:50;8.60;;;4.40;;
11671;SDS011;5892;43.412;24.612;2024-02-21T14:33:19;8.18;;;4.57;;
11671;SDS011;5892;43.412;24.612;2024-02-21T14:35:44;11.98;;;4.68;;
11671;SDS011;5892;43.412;24.612;2024-02-21T14:38:09;7.30;;;4.43;;
11671;SDS011;5892;43.412;24.612;2024-02-21T14:40:35;9.25;;;5.00;;
11671;SDS011;5892;43.412;24.612;2024-02-21T14:43:00;8.25;;;4.82;;
11671;SDS011;5892;43.412;24.612;2024-02-21T14:45:26;16.05;;;5.45;;
11671;SDS011;5892;43.412;24.612;2024-02-21T14:47:51;10.75;;;5.35;;
11671;SDS011;5892;43.412;24.612;2024-02-21T14:50:17;8.13;;;5.30;;
11671;SDS011;5892;43.412;24.612;2024-02-21T14:52:42;6.95;;;4.53;;
11671;SDS011;5892;43.412;24.612;2024-02-21T14:55:09;7.07;;;4.07;;
11671;SDS011;5892;43.412;24.612;2024-02-21T14:57:34;6.90;;;3.50;;
11671;SDS011;5892;43.412;24.612;2024-02-21T15:00:01;7.10;;;3.80;;
11671;SDS011;5892;43.412;24.612;2024-02-21T15:02:27;6.63;;;3.90;;
11671;SDS011;5892;43.412;24.612;2024-02-21T15:04:53;8.75;;;4.50;;
11671;SDS011;5892;43.412;24.612;2024-02-21T15:07:22;8.63;;;4.70;;
11671;SDS011;5892;43.412;24.612;2024-02-21T15:09:53;11.68;;;5.32;;
11671;SDS011;5892;43.412;24.612;2024-02-21T15:12:18;11.32;;;5.80;;
11671;SDS011;5892;43.412;24.612;2024-02-21T15:14:44;13.45;;;5.45;;
11671;SDS011;5892;43.412;24.612;2024-02-21T15:17:10;9.38;;;5.13;;
11671;SDS011;5892;43.412;24.612;2024-02-21T15:19:36;10.65;;;5.10;;
11671;SDS011;5892;43.412;24.612;2024-02-21T15:22:03;11.45;;;5.13;;
11671;SDS011;5892;43.412;24.612;2024-02-21T15:24:29;12.65;;;7.03;;
11671;SDS011;5892;43.412;24.612;2024-02-21T15:26:55;13.35;;;9.18;;
11671;SDS011;5892;43.412;24.612;2024-02-21T15:29:20;9.50;;;5.28;;
11671;SDS011;5892;43.412;24.612;2024-02-21T15:31:46;9.35;;;5.55;;
11671;SDS011;5892;43.412;24.612;2024-02-21T15:34:12;9.73;;;5.43;;
11671;SDS011;5892;43.412;24.612;2024-02-21T15:36:41;11.45;;;5.50;;
11671;SDS011;5892;43.412;24.612;2024-02-21T15:39:07;9.00;;;4.88;;
11671;SDS011;5892;43.412;24.612;2024-02-21T15:41:33;9.23;;;5.63;;
11671;SDS011;5892;43.412;24.612;2024-02-21T15:43:59;9.80;;;5.57;;
11671;SDS011;5892;43.412;24.612;2024-02-21T15:46:25;10.75;;;5.45;;
11671;SDS011;5892;43.412;24.612;2024-02-21T15:48:51;9.18;;;5.50;;
11671;SDS011;5892;43.412;24.612;2024-02-21T15:51:19;12.70;;;5.88;;
11671;SDS011;5892;43.412;24.612;2024-02-21T15:53:46;9.65;;;5.90;;
11671;SDS011;5892;43.412;24.612;2024-02-21T15:56:11;9.90;;;5.78;;
11671;SDS011;5892;43.412;24.612;2024-02-21T15:58:40;10.38;;;5.10;;
11671;SDS011;5892;43.412;24.612;2024-02-21T16:01:06;15.13;;;6.07;;
11671;SDS011;5892;43.412;24.612;2024-02-21T16:03:32;14.38;;;5.53;;
11671;SDS011;5892;43.412;24.612;2024-02-21T16:05:57;10.95;;;5.95;;
11671;SDS011;5892;43.412;24.612;2024-02-21T16:08:23;10.70;;;6.05;;
11671;SDS011;5892;43.412;24.612;2024-02-21T16:10:49;9.98;;;5.57;;
11671;SDS011;5892;43.412;24.612;2024-02-21T16:13:16;9.65;;;5.07;;
11671;SDS011;5892;43.412;24.612;2024-02-21T16:15:41;8.88;;;4.88;;
11671;SDS011;5892;43.412;24.612;2024-02-21T16:18:12;8.48;;;4.57;;
11671;SDS011;5892;43.412;24.612;2024-02-21T16:25:47;11.15;;;5.00;;
11671;SDS011;5892;43.412;24.612;2024-02-21T16:28:13;12.38;;;5.40;;
11671;SDS011;5892;43.412;24.612;2024-02-21T16:30:45;9.10;;;5.55;;
11671;SDS011;5892;43.412;24.612;2024-02-21T16:33:10;7.90;;;4.80;;
11671;SDS011;5892;43.412;24.612;2024-02-21T16:35:36;9.57;;;4.47;;
11671;SDS011;5892;43.412;24.612;2024-02-21T16:38:04;8.85;;;4.60;;
11671;SDS011;5892;43.412;24.612;2024-02-21T16:40:30;7.88;;;4.63;;
11671;SDS011;5892;43.412;24.612;2024-02-21T16:42:57;8.75;;;4.95;;
11671;SDS011;5892;43.412;24.612;2024-02-21T16:45:24;8.60;;;4.32;;
11671;SDS011;5892;43.412;24.612;2024-02-21T16:47:55;8.63;;;5.00;;
11671;SDS011;5892;43.412;24.612;2024-02-21T16:50:25;10.05;;;5.13;;
11671;SDS011;5892;43.412;24.612;2024-02-21T16:52:51;11.25;;;5.22;;
11671;SDS011;5892;43.412;24.612;2024-02-21T16:55:17;11.50;;;4.82;;
11671;SDS011;5892;43.412;24.612;2024-02-21T16:57:43;11.23;;;5.50;;
11671;SDS011;5892;43.412;24.612;2024-02-21T17:00:09;7.70;;;4.25;;
11671;SDS011;5892;43.412;24.612;2024-02-21T17:02:38;8.77;;;4.18;;
11671;SDS011;5892;43.412;24.612;2024-02-21T17:05:07;10.93;;;5.63;;
11671;SDS011;5892;43.412;24.612;2024-02-21T17:07:34;7.63;;;4.45;;